sensor_id;sensor_type;location;lat;lon;timestamp;P1;durP1;ratioP1;P2;durP2;ratioP2
65656;SDS011;57397;50.096;14.404;2022-12-05T00:00:56;7.57;;;5.60;;
65656;SDS011;57397;50.096;14.404;2022-12-05T00:03:21;9.00;;;5.40;;
65656;SDS011;57397;50.096;14.404;2022-12-05T00:05:47;8.13;;;5.68;;
65656;SDS011;57397;50.096;14.404;2022-12-05T00:08:13;8.02;;;5.25;;
65656;SDS011;57397;50.096;14.404;2022-12-05T00:10:39;8.43;;;5.70;;
65656;SDS011;57397;50.096;14.404;2022-12-05T00:13:05;7.40;;;5.10;;
65656;SDS011;57397;50.096;14.404;2022-12-05T00:15:30;7.05;;;5.22;;
65656;SDS011;57397;50.096;14.404;2022-12-05T00:17:56;8.07;;;5.40;;
65656;SDS011;57397;50.096;14.404;2022-12-05T00:20:21;8.48;;;5.30;;
65656;SDS011;57397;50.096;14.404;2022-12-05T00:22:47;8.95;;;5.63;;
65656;SDS011;57397;50.096;14.404;2022-12-05T00:25:12;8.13;;;5.38;;
65656;SDS011;57397;50.096;14.404;2022-12-05T00:27:38;8.23;;;5.18;;
65656;SDS011;57397;50.096;14.404;2022-12-05T00:30:04;7.80;;;5.25;;
65656;SDS011;57397;50.096;14.404;2022-12-05T00:32:30;8.02;;;5.18;;
65656;SDS011;57397;50.096;14.404;2022-12-05T00:34:56;7.85;;;5.10;;
65656;SDS011;57397;50.096;14.404;2022-12-05T00:37:22;8.70;;;5.50;;
65656;SDS011;57397;50.096;14.404;2022-12-05T00:39:47;7.82;;;5.30;;
65656;SDS011;57397;50.096;14.404;2022-12-05T00:42:13;8.00;;;5.18;;
65656;SDS011;57397;50.096;14.404;2022-12-05T00:44:38;7.47;;;5.15;;
65656;SDS011;57397;50.096;14.404;2022-12-05T00:47:04;7.32;;;5.40;;
65656;SDS011;57397;50.096;14.404;2022-12-05T00:49:29;7.28;;;4.95;;
65656;SDS011;57397;50.096;14.404;2022-12-05T00:51:55;8.02;;;4.80;;
65656;SDS011;57397;50.096;14.404;2022-12-05T00:54:20;8.10;;;5.45;;
65656;SDS011;57397;50.096;14.404;2022-12-05T00:56:46;8.07;;;5.20;;
65656;SDS011;57397;50.096;14.404;2022-12-05T00:59:13;7.30;;;4.90;;
65656;SDS011;57397;50.096;14.404;2022-12-05T01:01:41;7.32;;;4.80;;
65656;SDS011;57397;50.096;14.404;2022-12-05T01:04:09;7.20;;;5.00;;
65656;SDS011;57397;50.096;14.404;2022-12-05T01:06:36;8.50;;;5.07;;
65656;SDS011;57397;50.096;14.404;2022-12-05T01:09:02;6.47;;;4.57;;
65656;SDS011;57397;50.096;14.404;2022-12-05T01:11:29;6.75;;;4.70;;
65656;SDS011;57397;50.096;14.404;2022-12-05T01:13:54;7.63;;;4.82;;
65656;SDS011;57397;50.096;14.404;2022-12-05T01:16:25;6.88;;;4.82;;
65656;SDS011;57397;50.096;14.404;2022-12-05T01:18:56;6.70;;;4.82;;
65656;SDS011;57397;50.096;14.404;2022-12-05T01:21:22;6.20;;;4.47;;
65656;SDS011;57397;50.096;14.404;2022-12-05T01:23:48;6.90;;;4.50;;
65656;SDS011;57397;50.096;14.404;2022-12-05T01:26:14;7.38;;;4.88;;
65656;SDS011;57397;50.096;14.404;2022-12-05T01:28:41;7.20;;;4.75;;
65656;SDS011;57397;50.096;14.404;2022-12-05T01:31:17;8.00;;;4.75;;
65656;SDS011;57397;50.096;14.404;2022-12-05T01:33:48;7.60;;;4.80;;
65656;SDS011;57397;50.096;14.404;2022-12-05T01:36:14;6.60;;;4.55;;
65656;SDS011;57397;50.096;14.404;2022-12-05T01:38:40;6.93;;;4.47;;
65656;SDS011;57397;50.096;14.404;2022-12-05T01:41:06;7.10;;;4.90;;
65656;SDS011;57397;50.096;14.404;2022-12-05T01:43:51;7.68;;;4.85;;
65656;SDS011;57397;50.096;14.404;2022-12-05T01:46:17;7.30;;;4.53;;
65656;SDS011;57397;50.096;14.404;2022-12-05T01:48:42;7.43;;;5.07;;
65656;SDS011;57397;50.096;14.404;2022-12-05T01:51:08;6.20;;;4.47;;
65656;SDS011;57397;50.096;14.404;2022-12-05T01:53:33;8.50;;;4.60;;
65656;SDS011;57397;50.096;14.404;2022-12-05T01:55:59;7.47;;;4.80;;
65656;SDS011;57397;50.096;14.404;2022-12-05T01:58:24;6.13;;;4.45;;
65656;SDS011;57397;50.096;14.404;2022-12-05T02:00:53;6.70;;;4.53;;
65656;SDS011;57397;50.096;14.404;2022-12-05T02:03:18;5.60;;;4.25;;
65656;SDS011;57397;50.096;14.404;2022-12-05T02:05:45;6.85;;;4.60;;
65656;SDS011;57397;50.096;14.404;2022-12-05T02:08:12;6.18;;;4.38;;
65656;SDS011;57397;50.096;14.404;2022-12-05T02:10:39;6.47;;;4.20;;
65656;SDS011;57397;50.096;14.404;2022-12-05T02:15:44;6.85;;;4.40;;
65656;SDS011;57397;50.096;14.404;2022-12-05T02:23:31;5.63;;;4.20;;
65656;SDS011;57397;50.096;14.404;2022-12-05T02:26:29;6.57;;;4.33;;
65656;SDS011;57397;50.096;14.404;2022-12-05T02:29:16;6.60;;;4.05;;
65656;SDS011;57397;50.096;14.404;2022-12-05T02:31:57;5.80;;;4.20;;
65656;SDS011;57397;50.096;14.404;2022-12-05T02:37:12;5.35;;;3.78;;
65656;SDS011;57397;50.096;14.404;2022-12-05T02:40:00;6.03;;;4.00;;
65656;SDS011;57397;50.096;14.404;2022-12-05T02:42:57;6.53;;;3.83;;
65656;SDS011;57397;50.096;14.404;2022-12-05T02:45:33;7.22;;;4.32;;
65656;SDS011;57397;50.096;14.404;2022-12-05T02:48:01;5.75;;;3.92;;
65656;SDS011;57397;50.096;14.404;2022-12-05T02:50:28;5.93;;;3.78;;
65656;SDS011;57397;50.096;14.404;2022-12-05T02:52:57;6.97;;;4.20;;
65656;SDS011;57397;50.096;14.404;2022-12-05T02:55:25;7.22;;;4.30;;
65656;SDS011;57397;50.096;14.404;2022-12-05T02:57:53;6.05;;;4.47;;
65656;SDS011;57397;50.096;14.404;2022-12-05T03:00:22;7.20;;;4.07;;
65656;SDS011;57397;50.096;14.404;2022-12-05T03:02:49;6.43;;;4.65;;
65656;SDS011;57397;50.096;14.404;2022-12-05T03:08:03;6.82;;;4.10;;
65656;SDS011;57397;50.096;14.404;2022-12-05T03:10:31;7.22;;;4.07;;
65656;SDS011;57397;50.096;14.404;2022-12-05T03:12:59;6.30;;;4.00;;
65656;SDS011;57397;50.096;14.404;2022-12-05T03:15:30;6.72;;;4.25;;
65656;SDS011;57397;50.096;14.404;2022-12-05T03:18:07;6.47;;;4.43;;
65656;SDS011;57397;50.096;14.404;2022-12-05T03:20:37;5.78;;;4.03;;
65656;SDS011;57397;50.096;14.404;2022-12-05T03:23:15;6.68;;;4.40;;
65656;SDS011;57397;50.096;14.404;2022-12-05T03:26:27;6.28;;;4.07;;
65656;SDS011;57397;50.096;14.404;2022-12-05T03:28:51;6.10;;;4.18;;
65656;SDS011;57397;50.096;14.404;2022-12-05T03:31:23;6.27;;;4.10;;
65656;SDS011;57397;50.096;14.404;2022-12-05T03:33:59;5.50;;;4.03;;
65656;SDS011;57397;50.096;14.404;2022-12-05T03:36:28;5.72;;;4.03;;
65656;SDS011;57397;50.096;14.404;2022-12-05T03:39:02;6.78;;;4.40;;
65656;SDS011;57397;50.096;14.404;2022-12-05T03:47:20;6.25;;;4.22;;
65656;SDS011;57397;50.096;14.404;2022-12-05T03:49:53;6.78;;;4.05;;
65656;SDS011;57397;50.096;14.404;2022-12-05T03:55:01;6.30;;;4.03;;
65656;SDS011;57397;50.096;14.404;2022-12-05T04:08:23;6.95;;;4.35;;
65656;SDS011;57397;50.096;14.404;2022-12-05T04:10:52;6.03;;;4.30;;
65656;SDS011;57397;50.096;14.404;2022-12-05T04:22:38;6.53;;;3.92;;
65656;SDS011;57397;50.096;14.404;2022-12-05T04:25:04;6.53;;;4.10;;
65656;SDS011;57397;50.096;14.404;2022-12-05T04:30:20;7.32;;;4.05;;
65656;SDS011;57397;50.096;14.404;2022-12-05T04:35:35;5.85;;;4.13;;
65656;SDS011;57397;50.096;14.404;2022-12-05T04:38:06;6.55;;;4.13;;
65656;SDS011;57397;50.096;14.404;2022-12-05T04:40:36;7.90;;;4.30;;
65656;SDS011;57397;50.096;14.404;2022-12-05T04:43:08;5.43;;;3.67;;
65656;SDS011;57397;50.096;14.404;2022-12-05T04:45:35;5.90;;;4.00;;
65656;SDS011;57397;50.096;14.404;2022-12-05T04:48:03;6.25;;;4.18;;
65656;SDS011;57397;50.096;14.404;2022-12-05T04:50:34;5.80;;;4.00;;
65656;SDS011;57397;50.096;14.404;2022-12-05T04:53:01;5.93;;;4.07;;
65656;SDS011;57397;50.096;14.404;2022-12-05T04:55:27;7.10;;;4.10;;
65656;SDS011;57397;50.096;14.404;2022-12-05T04:58:11;6.82;;;4.20;;
65656;SDS011;57397;50.096;14.404;2022-12-05T05:03:29;5.63;;;4.00;;
65656;SDS011;57397;50.096;14.404;2022-12-05T05:05:56;6.05;;;4.05;;
65656;SDS011;57397;50.096;14.404;2022-12-05T05:08:23;5.75;;;3.92;;
65656;SDS011;57397;50.096;14.404;2022-12-05T05:10:55;6.57;;;4.05;;
65656;SDS011;57397;50.096;14.404;2022-12-05T05:13:21;6.35;;;3.97;;
65656;SDS011;57397;50.096;14.404;2022-12-05T05:15:46;5.40;;;3.90;;
65656;SDS011;57397;50.096;14.404;2022-12-05T05:18:12;5.82;;;4.00;;
65656;SDS011;57397;50.096;14.404;2022-12-05T05:20:37;5.80;;;3.63;;
65656;SDS011;57397;50.096;14.404;2022-12-05T05:23:03;6.70;;;3.95;;
65656;SDS011;57397;50.096;14.404;2022-12-05T05:25:28;5.60;;;3.88;;
65656;SDS011;57397;50.096;14.404;2022-12-05T05:27:54;5.03;;;3.75;;
65656;SDS011;57397;50.096;14.404;2022-12-05T05:30:21;5.93;;;3.63;;
65656;SDS011;57397;50.096;14.404;2022-12-05T05:32:48;5.65;;;3.95;;
65656;SDS011;57397;50.096;14.404;2022-12-05T05:35:13;5.55;;;3.78;;
65656;SDS011;57397;50.096;14.404;2022-12-05T05:37:39;5.15;;;3.78;;
65656;SDS011;57397;50.096;14.404;2022-12-05T05:40:06;6.13;;;4.22;;
65656;SDS011;57397;50.096;14.404;2022-12-05T05:42:32;5.50;;;3.53;;
65656;SDS011;57397;50.096;14.404;2022-12-05T05:44:58;6.30;;;4.20;;
65656;SDS011;57397;50.096;14.404;2022-12-05T05:47:23;5.22;;;3.45;;
65656;SDS011;57397;50.096;14.404;2022-12-05T05:49:49;6.20;;;4.13;;
65656;SDS011;57397;50.096;14.404;2022-12-05T05:52:14;6.13;;;3.95;;
65656;SDS011;57397;50.096;14.404;2022-12-05T05:54:40;5.22;;;3.80;;
65656;SDS011;57397;50.096;14.404;2022-12-05T05:57:05;6.85;;;4.20;;
65656;SDS011;57397;50.096;14.404;2022-12-05T05:59:31;6.00;;;3.90;;
65656;SDS011;57397;50.096;14.404;2022-12-05T06:01:56;6.40;;;3.97;;
65656;SDS011;57397;50.096;14.404;2022-12-05T06:04:22;5.53;;;3.80;;
65656;SDS011;57397;50.096;14.404;2022-12-05T06:06:47;5.32;;;3.70;;
65656;SDS011;57397;50.096;14.404;2022-12-05T06:09:13;6.38;;;3.70;;
65656;SDS011;57397;50.096;14.404;2022-12-05T06:11:38;6.30;;;4.10;;
65656;SDS011;57397;50.096;14.404;2022-12-05T06:14:03;5.22;;;3.47;;
65656;SDS011;57397;50.096;14.404;2022-12-05T06:16:30;6.55;;;3.83;;
65656;SDS011;57397;50.096;14.404;2022-12-05T06:18:55;5.57;;;3.92;;
65656;SDS011;57397;50.096;14.404;2022-12-05T06:21:21;6.32;;;3.92;;
65656;SDS011;57397;50.096;14.404;2022-12-05T06:23:47;5.90;;;3.92;;
65656;SDS011;57397;50.096;14.404;2022-12-05T06:26:13;6.15;;;3.67;;
65656;SDS011;57397;50.096;14.404;2022-12-05T06:28:41;5.57;;;3.70;;
65656;SDS011;57397;50.096;14.404;2022-12-05T06:31:10;7.03;;;4.10;;
65656;SDS011;57397;50.096;14.404;2022-12-05T06:33:37;5.18;;;3.40;;
65656;SDS011;57397;50.096;14.404;2022-12-05T06:36:13;5.80;;;3.50;;
65656;SDS011;57397;50.096;14.404;2022-12-05T06:38:40;6.28;;;3.85;;
65656;SDS011;57397;50.096;14.404;2022-12-05T06:41:06;5.47;;;3.75;;
65656;SDS011;57397;50.096;14.404;2022-12-05T06:43:32;6.60;;;4.07;;
65656;SDS011;57397;50.096;14.404;2022-12-05T06:45:58;5.60;;;3.70;;
65656;SDS011;57397;50.096;14.404;2022-12-05T06:48:24;5.60;;;3.65;;
65656;SDS011;57397;50.096;14.404;2022-12-05T06:50:50;5.47;;;3.55;;
65656;SDS011;57397;50.096;14.404;2022-12-05T06:53:16;5.38;;;3.40;;
65656;SDS011;57397;50.096;14.404;2022-12-05T06:55:42;5.50;;;3.47;;
65656;SDS011;57397;50.096;14.404;2022-12-05T06:58:08;6.55;;;3.80;;
65656;SDS011;57397;50.096;14.404;2022-12-05T07:00:33;5.93;;;3.60;;
65656;SDS011;57397;50.096;14.404;2022-12-05T07:03:17;5.03;;;3.35;;
65656;SDS011;57397;50.096;14.404;2022-12-05T07:05:43;5.32;;;3.65;;
65656;SDS011;57397;50.096;14.404;2022-12-05T07:08:08;6.60;;;3.47;;
65656;SDS011;57397;50.096;14.404;2022-12-05T07:10:34;5.38;;;3.53;;
65656;SDS011;57397;50.096;14.404;2022-12-05T07:12:59;6.18;;;3.55;;
65656;SDS011;57397;50.096;14.404;2022-12-05T07:15:25;5.07;;;3.47;;
65656;SDS011;57397;50.096;14.404;2022-12-05T07:17:50;5.10;;;3.40;;
65656;SDS011;57397;50.096;14.404;2022-12-05T07:20:15;5.82;;;3.60;;
65656;SDS011;57397;50.096;14.404;2022-12-05T07:22:42;5.40;;;3.35;;
65656;SDS011;57397;50.096;14.404;2022-12-05T07:25:08;4.82;;;3.45;;
65656;SDS011;57397;50.096;14.404;2022-12-05T07:27:33;5.60;;;3.53;;
65656;SDS011;57397;50.096;14.404;2022-12-05T07:29:59;4.90;;;3.50;;
65656;SDS011;57397;50.096;14.404;2022-12-05T07:32:25;5.43;;;3.35;;
65656;SDS011;57397;50.096;14.404;2022-12-05T07:34:50;4.78;;;3.30;;
65656;SDS011;57397;50.096;14.404;2022-12-05T07:37:15;5.38;;;3.67;;
65656;SDS011;57397;50.096;14.404;2022-12-05T07:39:41;5.28;;;3.45;;
65656;SDS011;57397;50.096;14.404;2022-12-05T07:42:06;4.97;;;3.22;;
65656;SDS011;57397;50.096;14.404;2022-12-05T07:44:32;4.72;;;3.55;;
65656;SDS011;57397;50.096;14.404;2022-12-05T07:46:57;5.80;;;3.67;;
65656;SDS011;57397;50.096;14.404;2022-12-05T07:49:23;5.93;;;3.58;;
65656;SDS011;57397;50.096;14.404;2022-12-05T07:51:48;5.38;;;3.53;;
65656;SDS011;57397;50.096;14.404;2022-12-05T07:54:14;5.60;;;3.42;;
65656;SDS011;57397;50.096;14.404;2022-12-05T07:56:39;4.80;;;3.38;;
65656;SDS011;57397;50.096;14.404;2022-12-05T07:59:05;4.55;;;3.00;;
65656;SDS011;57397;50.096;14.404;2022-12-05T08:01:30;5.47;;;3.42;;
65656;SDS011;57397;50.096;14.404;2022-12-05T08:03:57;4.60;;;3.20;;
65656;SDS011;57397;50.096;14.404;2022-12-05T08:06:24;5.18;;;3.40;;
65656;SDS011;57397;50.096;14.404;2022-12-05T08:08:50;4.15;;;2.90;;
65656;SDS011;57397;50.096;14.404;2022-12-05T08:11:18;4.65;;;3.30;;
65656;SDS011;57397;50.096;14.404;2022-12-05T08:13:45;5.25;;;3.78;;
65656;SDS011;57397;50.096;14.404;2022-12-05T08:16:12;5.72;;;3.63;;
65656;SDS011;57397;50.096;14.404;2022-12-05T08:18:39;4.75;;;3.20;;
65656;SDS011;57397;50.096;14.404;2022-12-05T08:21:06;4.75;;;3.53;;
65656;SDS011;57397;50.096;14.404;2022-12-05T08:23:36;5.50;;;3.28;;
65656;SDS011;57397;50.096;14.404;2022-12-05T08:28:35;5.15;;;3.40;;
65656;SDS011;57397;50.096;14.404;2022-12-05T08:31:07;5.25;;;3.40;;
65656;SDS011;57397;50.096;14.404;2022-12-05T08:33:34;4.95;;;3.20;;
65656;SDS011;57397;50.096;14.404;2022-12-05T08:36:04;4.85;;;3.40;;
65656;SDS011;57397;50.096;14.404;2022-12-05T08:38:31;6.05;;;4.00;;
65656;SDS011;57397;50.096;14.404;2022-12-05T08:41:01;5.22;;;3.50;;
65656;SDS011;57397;50.096;14.404;2022-12-05T08:43:28;4.53;;;3.17;;
65656;SDS011;57397;50.096;14.404;2022-12-05T08:45:54;5.05;;;3.55;;
65656;SDS011;57397;50.096;14.404;2022-12-05T08:48:21;5.28;;;3.47;;
65656;SDS011;57397;50.096;14.404;2022-12-05T08:50:47;5.40;;;3.60;;
65656;SDS011;57397;50.096;14.404;2022-12-05T08:53:12;5.70;;;3.60;;
65656;SDS011;57397;50.096;14.404;2022-12-05T08:55:38;4.85;;;3.25;;
65656;SDS011;57397;50.096;14.404;2022-12-05T08:58:03;5.68;;;3.58;;
65656;SDS011;57397;50.096;14.404;2022-12-05T09:00:29;5.00;;;3.33;;
65656;SDS011;57397;50.096;14.404;2022-12-05T09:02:56;5.15;;;3.28;;
65656;SDS011;57397;50.096;14.404;2022-12-05T09:05:22;4.75;;;2.95;;
65656;SDS011;57397;50.096;14.404;2022-12-05T09:07:47;4.85;;;3.40;;
65656;SDS011;57397;50.096;14.404;2022-12-05T09:10:13;4.30;;;3.30;;
65656;SDS011;57397;50.096;14.404;2022-12-05T09:12:38;5.10;;;3.28;;
65656;SDS011;57397;50.096;14.404;2022-12-05T09:15:07;5.03;;;3.28;;
65656;SDS011;57397;50.096;14.404;2022-12-05T09:17:33;4.88;;;3.38;;
65656;SDS011;57397;50.096;14.404;2022-12-05T09:19:59;5.75;;;3.65;;
65656;SDS011;57397;50.096;14.404;2022-12-05T09:22:25;4.88;;;2.97;;
65656;SDS011;57397;50.096;14.404;2022-12-05T09:24:50;5.20;;;3.38;;
65656;SDS011;57397;50.096;14.404;2022-12-05T09:27:15;5.38;;;3.75;;
65656;SDS011;57397;50.096;14.404;2022-12-05T09:29:41;5.10;;;3.30;;
65656;SDS011;57397;50.096;14.404;2022-12-05T09:32:07;4.90;;;3.15;;
65656;SDS011;57397;50.096;14.404;2022-12-05T09:34:33;5.20;;;3.25;;
65656;SDS011;57397;50.096;14.404;2022-12-05T09:36:59;6.50;;;3.47;;
65656;SDS011;57397;50.096;14.404;2022-12-05T09:39:26;5.82;;;3.33;;
65656;SDS011;57397;50.096;14.404;2022-12-05T09:42:16;4.80;;;3.20;;
65656;SDS011;57397;50.096;14.404;2022-12-05T09:47:53;6.10;;;3.33;;
65656;SDS011;57397;50.096;14.404;2022-12-05T09:52:56;4.13;;;2.95;;
65656;SDS011;57397;50.096;14.404;2022-12-05T09:55:26;4.70;;;3.20;;
65656;SDS011;57397;50.096;14.404;2022-12-05T09:57:56;5.03;;;3.42;;
65656;SDS011;57397;50.096;14.404;2022-12-05T10:00:24;4.75;;;3.15;;
65656;SDS011;57397;50.096;14.404;2022-12-05T10:08:37;5.05;;;3.10;;
65656;SDS011;57397;50.096;14.404;2022-12-05T10:11:26;5.25;;;3.20;;
65656;SDS011;57397;50.096;14.404;2022-12-05T10:13:57;4.65;;;3.25;;
65656;SDS011;57397;50.096;14.404;2022-12-05T10:16:34;4.65;;;3.28;;
65656;SDS011;57397;50.096;14.404;2022-12-05T10:19:05;4.55;;;3.08;;
65656;SDS011;57397;50.096;14.404;2022-12-05T10:22:00;5.53;;;3.05;;
65656;SDS011;57397;50.096;14.404;2022-12-05T10:24:54;4.35;;;2.95;;
65656;SDS011;57397;50.096;14.404;2022-12-05T10:27:26;5.03;;;3.00;;
65656;SDS011;57397;50.096;14.404;2022-12-05T10:30:00;4.43;;;3.20;;
65656;SDS011;57397;50.096;14.404;2022-12-05T10:32:31;5.05;;;2.95;;
65656;SDS011;57397;50.096;14.404;2022-12-05T10:37:59;4.88;;;3.17;;
65656;SDS011;57397;50.096;14.404;2022-12-05T10:40:37;4.88;;;3.40;;
65656;SDS011;57397;50.096;14.404;2022-12-05T10:43:12;4.20;;;2.85;;
65656;SDS011;57397;50.096;14.404;2022-12-05T10:45:42;4.30;;;3.10;;
65656;SDS011;57397;50.096;14.404;2022-12-05T10:48:14;4.57;;;2.70;;
65656;SDS011;57397;50.096;14.404;2022-12-05T10:50:41;3.97;;;3.00;;
65656;SDS011;57397;50.096;14.404;2022-12-05T10:53:10;4.78;;;2.80;;
65656;SDS011;57397;50.096;14.404;2022-12-05T10:55:40;4.40;;;3.00;;
65656;SDS011;57397;50.096;14.404;2022-12-05T10:58:08;5.47;;;3.08;;
65656;SDS011;57397;50.096;14.404;2022-12-05T11:00:37;5.35;;;3.10;;
65656;SDS011;57397;50.096;14.404;2022-12-05T11:03:16;4.00;;;2.70;;
65656;SDS011;57397;50.096;14.404;2022-12-05T11:05:52;4.05;;;3.00;;
65656;SDS011;57397;50.096;14.404;2022-12-05T11:08:23;3.88;;;2.78;;
65656;SDS011;57397;50.096;14.404;2022-12-05T11:11:05;4.32;;;2.75;;
65656;SDS011;57397;50.096;14.404;2022-12-05T11:13:58;4.22;;;3.08;;
65656;SDS011;57397;50.096;14.404;2022-12-05T11:16:25;3.60;;;2.65;;
65656;SDS011;57397;50.096;14.404;2022-12-05T11:18:53;4.40;;;3.15;;
65656;SDS011;57397;50.096;14.404;2022-12-05T11:21:18;4.03;;;2.80;;
65656;SDS011;57397;50.096;14.404;2022-12-05T11:23:45;3.83;;;2.83;;
65656;SDS011;57397;50.096;14.404;2022-12-05T11:29:00;4.20;;;3.03;;
65656;SDS011;57397;50.096;14.404;2022-12-05T11:31:27;4.38;;;2.80;;
65656;SDS011;57397;50.096;14.404;2022-12-05T11:36:30;4.82;;;3.05;;
65656;SDS011;57397;50.096;14.404;2022-12-05T11:39:03;4.57;;;3.03;;
65656;SDS011;57397;50.096;14.404;2022-12-05T11:55:07;3.88;;;2.55;;
65656;SDS011;57397;50.096;14.404;2022-12-05T12:12:36;4.15;;;2.55;;
65656;SDS011;57397;50.096;14.404;2022-12-05T12:15:28;3.80;;;2.90;;
65656;SDS011;57397;50.096;14.404;2022-12-05T12:21:04;4.28;;;2.72;;
65656;SDS011;57397;50.096;14.404;2022-12-05T12:32:31;4.18;;;2.83;;
65656;SDS011;57397;50.096;14.404;2022-12-05T12:41:16;3.92;;;2.72;;
65656;SDS011;57397;50.096;14.404;2022-12-05T12:44:08;3.88;;;2.67;;
65656;SDS011;57397;50.096;14.404;2022-12-05T12:46:56;4.43;;;2.88;;
65656;SDS011;57397;50.096;14.404;2022-12-05T12:51:53;4.05;;;2.90;;
65656;SDS011;57397;50.096;14.404;2022-12-05T12:57:15;4.60;;;2.92;;
65656;SDS011;57397;50.096;14.404;2022-12-05T13:08:12;4.25;;;2.90;;
65656;SDS011;57397;50.096;14.404;2022-12-05T13:10:41;3.72;;;2.67;;
65656;SDS011;57397;50.096;14.404;2022-12-05T13:13:10;4.15;;;3.05;;
65656;SDS011;57397;50.096;14.404;2022-12-05T13:15:39;4.18;;;2.80;;
65656;SDS011;57397;50.096;14.404;2022-12-05T13:18:15;4.38;;;3.03;;
65656;SDS011;57397;50.096;14.404;2022-12-05T13:20:46;5.13;;;3.15;;
65656;SDS011;57397;50.096;14.404;2022-12-05T13:23:14;4.47;;;2.97;;
65656;SDS011;57397;50.096;14.404;2022-12-05T13:25:42;4.90;;;3.22;;
65656;SDS011;57397;50.096;14.404;2022-12-05T13:28:29;4.07;;;2.95;;
65656;SDS011;57397;50.096;14.404;2022-12-05T13:31:06;5.07;;;3.20;;
65656;SDS011;57397;50.096;14.404;2022-12-05T13:33:35;4.22;;;2.78;;
65656;SDS011;57397;50.096;14.404;2022-12-05T13:36:09;4.22;;;3.05;;
65656;SDS011;57397;50.096;14.404;2022-12-05T13:38:55;4.45;;;3.20;;
65656;SDS011;57397;50.096;14.404;2022-12-05T13:41:41;5.28;;;3.00;;
65656;SDS011;57397;50.096;14.404;2022-12-05T13:44:32;4.15;;;3.10;;
65656;SDS011;57397;50.096;14.404;2022-12-05T13:47:00;4.72;;;3.10;;
65656;SDS011;57397;50.096;14.404;2022-12-05T13:49:42;3.80;;;2.88;;
65656;SDS011;57397;50.096;14.404;2022-12-05T13:52:14;4.85;;;3.45;;
65656;SDS011;57397;50.096;14.404;2022-12-05T13:55:03;5.05;;;2.78;;
65656;SDS011;57397;50.096;14.404;2022-12-05T14:07:46;4.20;;;2.78;;
65656;SDS011;57397;50.096;14.404;2022-12-05T14:12:51;4.57;;;3.08;;
65656;SDS011;57397;50.096;14.404;2022-12-05T14:33:44;5.15;;;3.30;;
65656;SDS011;57397;50.096;14.404;2022-12-05T14:36:14;5.53;;;3.90;;
65656;SDS011;57397;50.096;14.404;2022-12-05T14:38:46;4.57;;;3.38;;
65656;SDS011;57397;50.096;14.404;2022-12-05T14:41:13;6.07;;;3.65;;
65656;SDS011;57397;50.096;14.404;2022-12-05T14:43:40;5.68;;;3.45;;
65656;SDS011;57397;50.096;14.404;2022-12-05T14:46:19;4.88;;;3.50;;
65656;SDS011;57397;50.096;14.404;2022-12-05T14:48:48;5.60;;;3.78;;
65656;SDS011;57397;50.096;14.404;2022-12-05T14:54:02;6.38;;;3.78;;
65656;SDS011;57397;50.096;14.404;2022-12-05T14:56:29;6.45;;;3.88;;
65656;SDS011;57397;50.096;14.404;2022-12-05T15:01:48;5.82;;;3.90;;
65656;SDS011;57397;50.096;14.404;2022-12-05T15:04:22;6.28;;;4.40;;
65656;SDS011;57397;50.096;14.404;2022-12-05T15:07:04;5.55;;;3.63;;
65656;SDS011;57397;50.096;14.404;2022-12-05T15:12:05;6.75;;;4.20;;
65656;SDS011;57397;50.096;14.404;2022-12-05T15:14:45;7.28;;;4.35;;
65656;SDS011;57397;50.096;14.404;2022-12-05T15:17:14;6.95;;;4.30;;
65656;SDS011;57397;50.096;14.404;2022-12-05T15:19:43;6.28;;;4.22;;
65656;SDS011;57397;50.096;14.404;2022-12-05T15:22:12;7.30;;;4.50;;
65656;SDS011;57397;50.096;14.404;2022-12-05T15:24:39;6.95;;;4.47;;
65656;SDS011;57397;50.096;14.404;2022-12-05T15:27:05;6.93;;;4.40;;
65656;SDS011;57397;50.096;14.404;2022-12-05T15:29:35;7.90;;;4.63;;
65656;SDS011;57397;50.096;14.404;2022-12-05T15:32:02;7.35;;;4.68;;
65656;SDS011;57397;50.096;14.404;2022-12-05T15:39:51;7.18;;;4.45;;
65656;SDS011;57397;50.096;14.404;2022-12-05T15:42:20;7.53;;;4.78;;
65656;SDS011;57397;50.096;14.404;2022-12-05T15:44:48;7.50;;;5.03;;
65656;SDS011;57397;50.096;14.404;2022-12-05T15:47:18;7.85;;;4.63;;
65656;SDS011;57397;50.096;14.404;2022-12-05T15:49:45;7.60;;;4.65;;
65656;SDS011;57397;50.096;14.404;2022-12-05T15:52:23;7.93;;;5.00;;
65656;SDS011;57397;50.096;14.404;2022-12-05T15:54:54;7.60;;;4.70;;
65656;SDS011;57397;50.096;14.404;2022-12-05T15:57:25;7.13;;;4.68;;
65656;SDS011;57397;50.096;14.404;2022-12-05T16:00:02;7.57;;;4.63;;
65656;SDS011;57397;50.096;14.404;2022-12-05T16:02:40;8.43;;;4.93;;
65656;SDS011;57397;50.096;14.404;2022-12-05T16:05:21;7.53;;;5.03;;
65656;SDS011;57397;50.096;14.404;2022-12-05T16:08:07;7.88;;;4.90;;
65656;SDS011;57397;50.096;14.404;2022-12-05T16:10:33;9.57;;;5.97;;
65656;SDS011;57397;50.096;14.404;2022-12-05T16:13:05;11.70;;;6.15;;
65656;SDS011;57397;50.096;14.404;2022-12-05T16:15:35;11.30;;;6.30;;
65656;SDS011;57397;50.096;14.404;2022-12-05T16:18:01;12.02;;;6.28;;
65656;SDS011;57397;50.096;14.404;2022-12-05T16:20:28;12.50;;;6.75;;
65656;SDS011;57397;50.096;14.404;2022-12-05T16:23:21;13.10;;;6.65;;
65656;SDS011;57397;50.096;14.404;2022-12-05T16:28:38;17.08;;;8.43;;
65656;SDS011;57397;50.096;14.404;2022-12-05T16:31:03;15.55;;;8.25;;
65656;SDS011;57397;50.096;14.404;2022-12-05T16:33:30;17.75;;;7.50;;
65656;SDS011;57397;50.096;14.404;2022-12-05T16:35:55;17.45;;;8.70;;
65656;SDS011;57397;50.096;14.404;2022-12-05T16:38:58;20.58;;;9.25;;
65656;SDS011;57397;50.096;14.404;2022-12-05T16:41:31;19.33;;;9.25;;
65656;SDS011;57397;50.096;14.404;2022-12-05T16:43:58;21.63;;;9.23;;
65656;SDS011;57397;50.096;14.404;2022-12-05T16:52:10;31.58;;;12.55;;
65656;SDS011;57397;50.096;14.404;2022-12-05T16:54:38;36.47;;;14.73;;
65656;SDS011;57397;50.096;14.404;2022-12-05T16:57:04;37.25;;;14.48;;
65656;SDS011;57397;50.096;14.404;2022-12-05T16:59:34;39.75;;;16.27;;
65656;SDS011;57397;50.096;14.404;2022-12-05T17:02:01;48.15;;;17.80;;
65656;SDS011;57397;50.096;14.404;2022-12-05T17:04:28;46.05;;;18.35;;
65656;SDS011;57397;50.096;14.404;2022-12-05T17:06:55;47.35;;;18.35;;
65656;SDS011;57397;50.096;14.404;2022-12-05T17:09:20;50.47;;;19.23;;
65656;SDS011;57397;50.096;14.404;2022-12-05T17:11:46;49.08;;;19.00;;
65656;SDS011;57397;50.096;14.404;2022-12-05T17:14:14;49.70;;;19.20;;
65656;SDS011;57397;50.096;14.404;2022-12-05T17:16:40;41.55;;;16.98;;
65656;SDS011;57397;50.096;14.404;2022-12-05T17:19:06;49.42;;;19.05;;
65656;SDS011;57397;50.096;14.404;2022-12-05T17:21:33;44.67;;;17.63;;
65656;SDS011;57397;50.096;14.404;2022-12-05T17:23:59;45.03;;;18.63;;
65656;SDS011;57397;50.096;14.404;2022-12-05T17:26:25;43.90;;;19.27;;
65656;SDS011;57397;50.096;14.404;2022-12-05T17:28:50;51.13;;;20.70;;
65656;SDS011;57397;50.096;14.404;2022-12-05T17:31:17;50.03;;;18.92;;
65656;SDS011;57397;50.096;14.404;2022-12-05T17:33:45;48.53;;;19.35;;
65656;SDS011;57397;50.096;14.404;2022-12-05T17:36:13;49.30;;;19.83;;
65656;SDS011;57397;50.096;14.404;2022-12-05T17:38:39;56.55;;;21.05;;
65656;SDS011;57397;50.096;14.404;2022-12-05T17:41:15;43.80;;;18.55;;
65656;SDS011;57397;50.096;14.404;2022-12-05T17:43:41;44.28;;;18.25;;
65656;SDS011;57397;50.096;14.404;2022-12-05T17:46:08;45.33;;;18.90;;
65656;SDS011;57397;50.096;14.404;2022-12-05T17:48:33;49.47;;;19.75;;
65656;SDS011;57397;50.096;14.404;2022-12-05T17:50:59;47.90;;;19.40;;
65656;SDS011;57397;50.096;14.404;2022-12-05T17:53:26;47.53;;;19.65;;